sensor_id;sensor_type;location;lat;lon;timestamp;P1;durP1;ratioP1;P2;durP2;ratioP2
71183;SDS011;58887;51.980;4.464;2022-08-19T00:02:24;8.12;;;8.12;;
71183;SDS011;58887;51.980;4.464;2022-08-19T00:04:49;8.23;;;8.23;;
71183;SDS011;58887;51.980;4.464;2022-08-19T00:07:18;7.97;;;7.97;;
71183;SDS011;58887;51.980;4.464;2022-08-19T00:09:44;8.25;;;8.25;;
71183;SDS011;58887;51.980;4.464;2022-08-19T00:12:10;8.17;;;8.17;;
71183;SDS011;58887;51.980;4.464;2022-08-19T00:14:36;8.53;;;8.53;;
71183;SDS011;58887;51.980;4.464;2022-08-19T00:17:03;8.23;;;8.23;;
71183;SDS011;58887;51.980;4.464;2022-08-19T00:19:30;7.92;;;7.92;;
71183;SDS011;58887;51.980;4.464;2022-08-19T00:21:55;8.25;;;8.25;;
71183;SDS011;58887;51.980;4.464;2022-08-19T00:24:21;7.79;;;7.79;;
71183;SDS011;58887;51.980;4.464;2022-08-19T00:26:47;7.76;;;7.76;;
71183;SDS011;58887;51.980;4.464;2022-08-19T00:29:13;7.46;;;7.46;;
71183;SDS011;58887;51.980;4.464;2022-08-19T00:31:41;7.66;;;7.66;;
71183;SDS011;58887;51.980;4.464;2022-08-19T00:34:08;8.02;;;8.02;;
71183;SDS011;58887;51.980;4.464;2022-08-19T00:36:34;9.08;;;9.08;;
71183;SDS011;58887;51.980;4.464;2022-08-19T00:38:59;9.81;;;9.81;;
71183;SDS011;58887;51.980;4.464;2022-08-19T00:41:26;9.14;;;9.14;;
71183;SDS011;58887;51.980;4.464;2022-08-19T00:46:42;9.75;;;9.75;;
71183;SDS011;58887;51.980;4.464;2022-08-19T00:49:12;9.63;;;9.63;;
71183;SDS011;58887;51.980;4.464;2022-08-19T00:51:47;9.56;;;9.56;;
71183;SDS011;58887;51.980;4.464;2022-08-19T00:54:16;9.26;;;9.26;;
71183;SDS011;58887;51.980;4.464;2022-08-19T00:56:44;8.86;;;8.86;;
71183;SDS011;58887;51.980;4.464;2022-08-19T00:59:11;9.59;;;9.59;;
71183;SDS011;58887;51.980;4.464;2022-08-19T01:01:39;8.75;;;8.75;;
71183;SDS011;58887;51.980;4.464;2022-08-19T01:04:08;8.68;;;8.68;;
71183;SDS011;58887;51.980;4.464;2022-08-19T01:06:35;8.93;;;8.93;;
71183;SDS011;58887;51.980;4.464;2022-08-19T01:09:02;8.61;;;8.61;;
71183;SDS011;58887;51.980;4.464;2022-08-19T01:11:29;8.27;;;8.27;;
71183;SDS011;58887;51.980;4.464;2022-08-19T01:13:58;8.57;;;8.57;;
71183;SDS011;58887;51.980;4.464;2022-08-19T01:16:25;8.18;;;8.18;;
71183;SDS011;58887;51.980;4.464;2022-08-19T01:18:54;8.02;;;8.02;;
71183;SDS011;58887;51.980;4.464;2022-08-19T01:23:52;8.13;;;8.13;;
71183;SDS011;58887;51.980;4.464;2022-08-19T01:26:19;8.30;;;8.30;;
71183;SDS011;58887;51.980;4.464;2022-08-19T01:28:48;7.75;;;7.75;;
71183;SDS011;58887;51.980;4.464;2022-08-19T01:31:18;7.29;;;7.29;;
71183;SDS011;58887;51.980;4.464;2022-08-19T01:33:47;7.37;;;7.37;;
71183;SDS011;58887;51.980;4.464;2022-08-19T01:36:15;7.23;;;7.23;;
71183;SDS011;58887;51.980;4.464;2022-08-19T01:38:51;7.40;;;7.40;;
71183;SDS011;58887;51.980;4.464;2022-08-19T01:41:17;7.87;;;7.87;;
71183;SDS011;58887;51.980;4.464;2022-08-19T01:43:43;7.99;;;7.99;;
71183;SDS011;58887;51.980;4.464;2022-08-19T01:46:09;7.90;;;7.90;;
71183;SDS011;58887;51.980;4.464;2022-08-19T01:48:40;7.62;;;7.62;;
71183;SDS011;58887;51.980;4.464;2022-08-19T01:51:08;8.18;;;8.18;;
71183;SDS011;58887;51.980;4.464;2022-08-19T01:53:35;8.49;;;8.49;;
71183;SDS011;58887;51.980;4.464;2022-08-19T01:56:01;7.79;;;7.79;;
71183;SDS011;58887;51.980;4.464;2022-08-19T01:58:29;7.94;;;7.94;;
71183;SDS011;58887;51.980;4.464;2022-08-19T02:01:01;7.84;;;7.84;;
71183;SDS011;58887;51.980;4.464;2022-08-19T02:03:27;7.49;;;7.49;;
71183;SDS011;58887;51.980;4.464;2022-08-19T02:05:55;8.06;;;8.06;;
71183;SDS011;58887;51.980;4.464;2022-08-19T02:08:22;8.39;;;8.39;;
71183;SDS011;58887;51.980;4.464;2022-08-19T02:10:48;8.34;;;8.34;;
71183;SDS011;58887;51.980;4.464;2022-08-19T02:13:15;8.90;;;8.90;;
71183;SDS011;58887;51.980;4.464;2022-08-19T02:15:40;9.78;;;9.78;;
71183;SDS011;58887;51.980;4.464;2022-08-19T02:18:06;12.10;;;12.10;;
71183;SDS011;58887;51.980;4.464;2022-08-19T02:20:33;15.05;;;15.05;;
71183;SDS011;58887;51.980;4.464;2022-08-19T02:22:59;16.76;;;16.75;;
71183;SDS011;58887;51.980;4.464;2022-08-19T02:25:26;20.55;;;20.53;;
71183;SDS011;58887;51.980;4.464;2022-08-19T02:27:52;18.07;;;18.01;;
71183;SDS011;58887;51.980;4.464;2022-08-19T02:30:19;20.79;;;20.56;;
71183;SDS011;58887;51.980;4.464;2022-08-19T02:32:44;21.48;;;21.42;;
71183;SDS011;58887;51.980;4.464;2022-08-19T02:35:11;22.20;;;21.91;;
71183;SDS011;58887;51.980;4.464;2022-08-19T02:37:38;24.31;;;23.54;;
71183;SDS011;58887;51.980;4.464;2022-08-19T02:40:22;24.29;;;23.70;;
71183;SDS011;58887;51.980;4.464;2022-08-19T02:42:47;23.87;;;23.13;;
71183;SDS011;58887;51.980;4.464;2022-08-19T02:45:13;24.10;;;23.75;;
71183;SDS011;58887;51.980;4.464;2022-08-19T02:47:39;23.41;;;23.23;;
71183;SDS011;58887;51.980;4.464;2022-08-19T02:50:07;22.42;;;22.15;;
71183;SDS011;58887;51.980;4.464;2022-08-19T02:52:32;23.60;;;23.32;;
71183;SDS011;58887;51.980;4.464;2022-08-19T02:58:21;25.01;;;24.22;;
71183;SDS011;58887;51.980;4.464;2022-08-19T03:00:49;24.76;;;24.46;;
71183;SDS011;58887;51.980;4.464;2022-08-19T03:03:17;24.69;;;24.11;;
71183;SDS011;58887;51.980;4.464;2022-08-19T03:05:44;23.58;;;23.46;;
71183;SDS011;58887;51.980;4.464;2022-08-19T03:08:11;23.25;;;22.64;;
71183;SDS011;58887;51.980;4.464;2022-08-19T03:10:41;22.80;;;22.34;;
71183;SDS011;58887;51.980;4.464;2022-08-19T03:13:10;22.47;;;22.01;;
71183;SDS011;58887;51.980;4.464;2022-08-19T03:15:39;22.39;;;22.04;;
71183;SDS011;58887;51.980;4.464;2022-08-19T03:18:06;23.91;;;23.66;;
71183;SDS011;58887;51.980;4.464;2022-08-19T03:20:31;25.03;;;24.49;;
71183;SDS011;58887;51.980;4.464;2022-08-19T03:22:57;26.12;;;25.96;;
71183;SDS011;58887;51.980;4.464;2022-08-19T03:25:23;25.90;;;25.43;;
71183;SDS011;58887;51.980;4.464;2022-08-19T03:27:49;25.81;;;25.13;;
71183;SDS011;58887;51.980;4.464;2022-08-19T03:30:14;25.60;;;24.99;;
71183;SDS011;58887;51.980;4.464;2022-08-19T03:32:40;25.19;;;24.61;;
71183;SDS011;58887;51.980;4.464;2022-08-19T03:35:05;24.24;;;23.82;;
71183;SDS011;58887;51.980;4.464;2022-08-19T03:37:31;24.83;;;24.22;;
71183;SDS011;58887;51.980;4.464;2022-08-19T03:39:57;25.66;;;24.78;;
71183;SDS011;58887;51.980;4.464;2022-08-19T03:42:22;26.40;;;25.47;;
71183;SDS011;58887;51.980;4.464;2022-08-19T03:44:48;26.64;;;25.68;;
71183;SDS011;58887;51.980;4.464;2022-08-19T03:47:13;27.91;;;27.24;;
71183;SDS011;58887;51.980;4.464;2022-08-19T03:49:40;30.02;;;29.37;;
71183;SDS011;58887;51.980;4.464;2022-08-19T03:52:05;30.38;;;29.80;;
71183;SDS011;58887;51.980;4.464;2022-08-19T03:54:32;30.45;;;29.87;;
71183;SDS011;58887;51.980;4.464;2022-08-19T03:56:58;30.29;;;29.92;;
71183;SDS011;58887;51.980;4.464;2022-08-19T03:59:28;30.95;;;30.49;;
71183;SDS011;58887;51.980;4.464;2022-08-19T04:01:59;32.55;;;31.89;;
71183;SDS011;58887;51.980;4.464;2022-08-19T04:04:27;32.53;;;31.90;;
71183;SDS011;58887;51.980;4.464;2022-08-19T04:06:54;34.34;;;33.36;;
71183;SDS011;58887;51.980;4.464;2022-08-19T04:09:20;34.80;;;33.96;;
71183;SDS011;58887;51.980;4.464;2022-08-19T04:11:46;34.19;;;33.27;;
71183;SDS011;58887;51.980;4.464;2022-08-19T04:14:16;36.95;;;35.50;;
71183;SDS011;58887;51.980;4.464;2022-08-19T04:16:44;36.61;;;35.55;;
71183;SDS011;58887;51.980;4.464;2022-08-19T04:19:10;39.80;;;38.45;;
71183;SDS011;58887;51.980;4.464;2022-08-19T04:21:37;41.53;;;39.62;;
71183;SDS011;58887;51.980;4.464;2022-08-19T04:24:02;41.55;;;39.84;;
71183;SDS011;58887;51.980;4.464;2022-08-19T04:26:30;40.61;;;38.95;;
71183;SDS011;58887;51.980;4.464;2022-08-19T04:28:58;40.99;;;39.42;;
71183;SDS011;58887;51.980;4.464;2022-08-19T04:31:27;41.37;;;39.51;;
71183;SDS011;58887;51.980;4.464;2022-08-19T04:33:55;40.11;;;38.47;;
71183;SDS011;58887;51.980;4.464;2022-08-19T04:36:24;40.14;;;38.38;;
71183;SDS011;58887;51.980;4.464;2022-08-19T04:38:53;39.33;;;37.68;;
71183;SDS011;58887;51.980;4.464;2022-08-19T04:41:21;39.29;;;37.75;;
71183;SDS011;58887;51.980;4.464;2022-08-19T04:44:05;37.64;;;36.24;;
71183;SDS011;58887;51.980;4.464;2022-08-19T04:46:32;38.34;;;36.90;;
71183;SDS011;58887;51.980;4.464;2022-08-19T04:49:01;38.98;;;37.32;;
71183;SDS011;58887;51.980;4.464;2022-08-19T04:51:30;37.77;;;36.17;;
71183;SDS011;58887;51.980;4.464;2022-08-19T04:53:57;37.86;;;36.25;;
71183;SDS011;58887;51.980;4.464;2022-08-19T04:56:23;37.71;;;36.13;;
71183;SDS011;58887;51.980;4.464;2022-08-19T04:58:51;38.38;;;36.67;;
71183;SDS011;58887;51.980;4.464;2022-08-19T05:01:18;37.83;;;36.41;;
71183;SDS011;58887;51.980;4.464;2022-08-19T05:03:48;36.80;;;35.76;;
71183;SDS011;58887;51.980;4.464;2022-08-19T05:06:15;37.14;;;35.91;;
71183;SDS011;58887;51.980;4.464;2022-08-19T05:08:43;36.99;;;35.86;;
71183;SDS011;58887;51.980;4.464;2022-08-19T05:13:48;38.13;;;36.73;;
71183;SDS011;58887;51.980;4.464;2022-08-19T05:16:15;36.64;;;35.90;;
71183;SDS011;58887;51.980;4.464;2022-08-19T05:18:42;38.37;;;37.24;;
71183;SDS011;58887;51.980;4.464;2022-08-19T05:21:28;36.79;;;35.87;;
71183;SDS011;58887;51.980;4.464;2022-08-19T05:24:19;36.31;;;35.29;;
71183;SDS011;58887;51.980;4.464;2022-08-19T05:26:47;35.05;;;34.28;;
71183;SDS011;58887;51.980;4.464;2022-08-19T05:29:15;35.88;;;35.21;;
71183;SDS011;58887;51.980;4.464;2022-08-19T05:31:42;35.34;;;34.55;;
71183;SDS011;58887;51.980;4.464;2022-08-19T05:34:09;35.09;;;34.68;;
71183;SDS011;58887;51.980;4.464;2022-08-19T05:36:36;35.58;;;34.99;;
71183;SDS011;58887;51.980;4.464;2022-08-19T05:39:05;36.35;;;35.75;;
71183;SDS011;58887;51.980;4.464;2022-08-19T05:41:32;36.97;;;36.27;;
71183;SDS011;58887;51.980;4.464;2022-08-19T05:44:03;36.35;;;35.75;;
71183;SDS011;58887;51.980;4.464;2022-08-19T05:46:35;35.78;;;35.10;;
71183;SDS011;58887;51.980;4.464;2022-08-19T05:49:02;35.61;;;35.28;;
71183;SDS011;58887;51.980;4.464;2022-08-19T05:51:32;34.85;;;34.44;;
71183;SDS011;58887;51.980;4.464;2022-08-19T05:53:59;34.84;;;34.27;;
71183;SDS011;58887;51.980;4.464;2022-08-19T05:56:26;35.03;;;34.56;;
71183;SDS011;58887;51.980;4.464;2022-08-19T05:58:52;34.16;;;33.62;;
71183;SDS011;58887;51.980;4.464;2022-08-19T06:01:19;33.61;;;32.95;;
71183;SDS011;58887;51.980;4.464;2022-08-19T06:03:45;34.45;;;33.83;;
71183;SDS011;58887;51.980;4.464;2022-08-19T06:06:14;33.21;;;32.79;;
71183;SDS011;58887;51.980;4.464;2022-08-19T06:08:40;32.88;;;32.40;;
71183;SDS011;58887;51.980;4.464;2022-08-19T06:13:57;34.19;;;33.78;;
71183;SDS011;58887;51.980;4.464;2022-08-19T06:16:27;33.13;;;32.79;;
71183;SDS011;58887;51.980;4.464;2022-08-19T06:18:53;33.71;;;33.10;;
71183;SDS011;58887;51.980;4.464;2022-08-19T06:21:22;33.60;;;33.32;;
71183;SDS011;58887;51.980;4.464;2022-08-19T06:23:50;33.17;;;32.93;;
71183;SDS011;58887;51.980;4.464;2022-08-19T06:26:17;34.90;;;34.29;;
71183;SDS011;58887;51.980;4.464;2022-08-19T06:28:44;35.50;;;34.91;;
71183;SDS011;58887;51.980;4.464;2022-08-19T06:31:14;36.57;;;35.96;;
71183;SDS011;58887;51.980;4.464;2022-08-19T06:33:44;36.30;;;35.80;;
71183;SDS011;58887;51.980;4.464;2022-08-19T06:36:24;34.67;;;34.48;;
71183;SDS011;58887;51.980;4.464;2022-08-19T06:39:02;33.78;;;33.59;;
71183;SDS011;58887;51.980;4.464;2022-08-19T06:41:31;33.46;;;33.29;;
71183;SDS011;58887;51.980;4.464;2022-08-19T06:43:59;33.71;;;33.30;;
71183;SDS011;58887;51.980;4.464;2022-08-19T06:46:24;32.77;;;32.37;;
71183;SDS011;58887;51.980;4.464;2022-08-19T06:48:51;32.78;;;32.01;;
71183;SDS011;58887;51.980;4.464;2022-08-19T06:51:18;32.09;;;31.89;;
71183;SDS011;58887;51.980;4.464;2022-08-19T06:53:48;32.02;;;31.63;;
71183;SDS011;58887;51.980;4.464;2022-08-19T06:56:16;32.18;;;31.82;;
71183;SDS011;58887;51.980;4.464;2022-08-19T06:58:51;32.00;;;31.74;;
71183;SDS011;58887;51.980;4.464;2022-08-19T07:01:18;33.63;;;33.42;;
71183;SDS011;58887;51.980;4.464;2022-08-19T07:03:45;32.03;;;31.88;;
71183;SDS011;58887;51.980;4.464;2022-08-19T07:06:15;30.21;;;29.78;;
71183;SDS011;58887;51.980;4.464;2022-08-19T07:08:43;28.71;;;28.56;;
71183;SDS011;58887;51.980;4.464;2022-08-19T07:11:14;29.40;;;29.39;;
71183;SDS011;58887;51.980;4.464;2022-08-19T07:13:46;29.08;;;28.88;;
71183;SDS011;58887;51.980;4.464;2022-08-19T07:16:14;28.49;;;28.45;;
71183;SDS011;58887;51.980;4.464;2022-08-19T07:18:42;28.57;;;28.11;;
71183;SDS011;58887;51.980;4.464;2022-08-19T07:21:20;26.85;;;26.66;;
71183;SDS011;58887;51.980;4.464;2022-08-19T07:23:49;25.77;;;25.73;;
71183;SDS011;58887;51.980;4.464;2022-08-19T07:26:19;24.59;;;24.59;;
71183;SDS011;58887;51.980;4.464;2022-08-19T07:28:48;23.97;;;23.94;;
71183;SDS011;58887;51.980;4.464;2022-08-19T07:31:15;22.62;;;22.58;;
71183;SDS011;58887;51.980;4.464;2022-08-19T07:33:44;23.07;;;23.07;;
71183;SDS011;58887;51.980;4.464;2022-08-19T07:36:11;21.72;;;21.72;;
71183;SDS011;58887;51.980;4.464;2022-08-19T07:38:40;21.85;;;21.81;;
71183;SDS011;58887;51.980;4.464;2022-08-19T07:41:09;22.07;;;22.07;;
71183;SDS011;58887;51.980;4.464;2022-08-19T07:43:36;21.79;;;21.79;;
71183;SDS011;58887;51.980;4.464;2022-08-19T07:46:05;21.31;;;21.31;;
71183;SDS011;58887;51.980;4.464;2022-08-19T07:48:31;21.75;;;21.68;;
71183;SDS011;58887;51.980;4.464;2022-08-19T07:50:59;22.34;;;22.28;;
71183;SDS011;58887;51.980;4.464;2022-08-19T07:53:27;22.47;;;22.47;;
71183;SDS011;58887;51.980;4.464;2022-08-19T07:55:54;22.74;;;22.72;;
71183;SDS011;58887;51.980;4.464;2022-08-19T07:58:25;21.47;;;21.47;;
71183;SDS011;58887;51.980;4.464;2022-08-19T08:00:50;20.26;;;20.26;;
71183;SDS011;58887;51.980;4.464;2022-08-19T08:03:18;19.92;;;19.92;;
71183;SDS011;58887;51.980;4.464;2022-08-19T08:05:45;19.55;;;19.55;;
71183;SDS011;58887;51.980;4.464;2022-08-19T08:08:30;19.19;;;19.19;;
71183;SDS011;58887;51.980;4.464;2022-08-19T08:11:16;17.62;;;17.62;;
71183;SDS011;58887;51.980;4.464;2022-08-19T08:13:45;17.28;;;17.28;;
71183;SDS011;58887;51.980;4.464;2022-08-19T08:16:11;16.55;;;16.55;;
71183;SDS011;58887;51.980;4.464;2022-08-19T08:18:36;15.16;;;15.16;;
71183;SDS011;58887;51.980;4.464;2022-08-19T08:21:07;15.10;;;15.10;;
71183;SDS011;58887;51.980;4.464;2022-08-19T08:23:33;15.36;;;15.36;;
71183;SDS011;58887;51.980;4.464;2022-08-19T08:25:59;15.50;;;15.50;;
71183;SDS011;58887;51.980;4.464;2022-08-19T08:28:25;14.72;;;14.72;;
71183;SDS011;58887;51.980;4.464;2022-08-19T08:30:52;14.43;;;14.43;;
71183;SDS011;58887;51.980;4.464;2022-08-19T08:33:19;13.34;;;13.34;;
71183;SDS011;58887;51.980;4.464;2022-08-19T08:35:47;12.30;;;12.30;;
71183;SDS011;58887;51.980;4.464;2022-08-19T08:38:13;11.73;;;11.73;;
71183;SDS011;58887;51.980;4.464;2022-08-19T08:40:44;11.73;;;11.73;;
71183;SDS011;58887;51.980;4.464;2022-08-19T08:43:19;11.74;;;11.74;;
71183;SDS011;58887;51.980;4.464;2022-08-19T08:45:52;11.32;;;11.32;;
71183;SDS011;58887;51.980;4.464;2022-08-19T08:48:46;11.03;;;11.03;;
71183;SDS011;58887;51.980;4.464;2022-08-19T08:51:44;11.96;;;11.96;;
71183;SDS011;58887;51.980;4.464;2022-08-19T08:54:17;11.46;;;11.46;;
71183;SDS011;58887;51.980;4.464;2022-08-19T08:56:47;11.10;;;11.10;;
71183;SDS011;58887;51.980;4.464;2022-08-19T09:01:57;11.38;;;11.38;;
71183;SDS011;58887;51.980;4.464;2022-08-19T09:04:23;10.32;;;10.32;;
71183;SDS011;58887;51.980;4.464;2022-08-19T09:06:51;11.24;;;11.24;;
71183;SDS011;58887;51.980;4.464;2022-08-19T09:09:43;11.00;;;11.00;;
71183;SDS011;58887;51.980;4.464;2022-08-19T09:14:58;10.81;;;10.81;;
71183;SDS011;58887;51.980;4.464;2022-08-19T09:17:29;10.57;;;10.57;;
71183;SDS011;58887;51.980;4.464;2022-08-19T09:19:58;9.97;;;9.97;;
71183;SDS011;58887;51.980;4.464;2022-08-19T09:22:31;9.19;;;9.19;;
71183;SDS011;58887;51.980;4.464;2022-08-19T09:24:57;8.84;;;8.84;;
71183;SDS011;58887;51.980;4.464;2022-08-19T09:27:22;8.38;;;8.38;;
71183;SDS011;58887;51.980;4.464;2022-08-19T09:29:49;8.73;;;8.73;;
71183;SDS011;58887;51.980;4.464;2022-08-19T09:32:16;8.38;;;8.38;;
71183;SDS011;58887;51.980;4.464;2022-08-19T09:34:43;8.30;;;8.30;;
71183;SDS011;58887;51.980;4.464;2022-08-19T09:37:08;7.65;;;7.65;;
71183;SDS011;58887;51.980;4.464;2022-08-19T09:39:34;8.00;;;8.00;;
71183;SDS011;58887;51.980;4.464;2022-08-19T09:42:00;7.96;;;7.96;;
71183;SDS011;58887;51.980;4.464;2022-08-19T09:44:25;8.13;;;8.13;;
71183;SDS011;58887;51.980;4.464;2022-08-19T09:46:51;9.92;;;9.92;;
71183;SDS011;58887;51.980;4.464;2022-08-19T09:49:17;8.26;;;8.26;;
71183;SDS011;58887;51.980;4.464;2022-08-19T09:51:48;7.45;;;7.45;;
71183;SDS011;58887;51.980;4.464;2022-08-19T09:54:16;6.97;;;6.97;;
71183;SDS011;58887;51.980;4.464;2022-08-19T09:56:43;6.63;;;6.63;;
71183;SDS011;58887;51.980;4.464;2022-08-19T09:59:09;6.05;;;6.05;;
71183;SDS011;58887;51.980;4.464;2022-08-19T10:01:37;5.89;;;5.89;;
71183;SDS011;58887;51.980;4.464;2022-08-19T10:04:03;6.72;;;6.72;;
71183;SDS011;58887;51.980;4.464;2022-08-19T10:06:33;7.19;;;7.19;;
71183;SDS011;58887;51.980;4.464;2022-08-19T10:09:00;6.75;;;6.75;;
71183;SDS011;58887;51.980;4.464;2022-08-19T10:11:28;8.40;;;8.40;;
71183;SDS011;58887;51.980;4.464;2022-08-19T10:13:54;8.58;;;8.58;;
71183;SDS011;58887;51.980;4.464;2022-08-19T10:16:20;7.71;;;7.71;;
71183;SDS011;58887;51.980;4.464;2022-08-19T10:18:48;7.24;;;7.24;;
71183;SDS011;58887;51.980;4.464;2022-08-19T10:21:18;5.87;;;5.87;;
71183;SDS011;58887;51.980;4.464;2022-08-19T10:23:48;4.58;;;4.58;;
71183;SDS011;58887;51.980;4.464;2022-08-19T10:26:21;4.15;;;4.15;;
71183;SDS011;58887;51.980;4.464;2022-08-19T10:28:48;3.43;;;3.43;;
71183;SDS011;58887;51.980;4.464;2022-08-19T10:31:16;3.35;;;3.35;;
71183;SDS011;58887;51.980;4.464;2022-08-19T10:33:50;3.41;;;3.41;;
71183;SDS011;58887;51.980;4.464;2022-08-19T10:36:21;4.12;;;4.12;;
71183;SDS011;58887;51.980;4.464;2022-08-19T10:38:50;3.69;;;3.69;;
71183;SDS011;58887;51.980;4.464;2022-08-19T10:41:18;3.13;;;3.13;;
71183;SDS011;58887;51.980;4.464;2022-08-19T10:43:53;3.27;;;3.27;;
71183;SDS011;58887;51.980;4.464;2022-08-19T10:46:21;2.90;;;2.90;;
71183;SDS011;58887;51.980;4.464;2022-08-19T10:48:48;2.60;;;2.60;;
71183;SDS011;58887;51.980;4.464;2022-08-19T10:51:15;2.72;;;2.72;;
71183;SDS011;58887;51.980;4.464;2022-08-19T10:54:00;2.49;;;2.49;;
71183;SDS011;58887;51.980;4.464;2022-08-19T10:56:27;2.25;;;2.25;;
71183;SDS011;58887;51.980;4.464;2022-08-19T10:59:12;2.75;;;2.75;;
71183;SDS011;58887;51.980;4.464;2022-08-19T11:01:41;2.76;;;2.76;;
71183;SDS011;58887;51.980;4.464;2022-08-19T11:04:09;2.38;;;2.38;;
71183;SDS011;58887;51.980;4.464;2022-08-19T11:06:39;2.46;;;2.46;;
71183;SDS011;58887;51.980;4.464;2022-08-19T11:09:06;2.92;;;2.92;;
71183;SDS011;58887;51.980;4.464;2022-08-19T11:11:33;2.73;;;2.73;;
71183;SDS011;58887;51.980;4.464;2022-08-19T11:14:05;2.85;;;2.85;;
71183;SDS011;58887;51.980;4.464;2022-08-19T11:16:39;2.97;;;2.97;;
71183;SDS011;58887;51.980;4.464;2022-08-19T11:19:06;2.65;;;2.65;;
71183;SDS011;58887;51.980;4.464;2022-08-19T11:21:35;2.58;;;2.58;;
71183;SDS011;58887;51.980;4.464;2022-08-19T11:24:07;2.31;;;2.31;;
71183;SDS011;58887;51.980;4.464;2022-08-19T11:26:35;2.28;;;2.28;;
71183;SDS011;58887;51.980;4.464;2022-08-19T11:29:03;2.39;;;2.39;;
71183;SDS011;58887;51.980;4.464;2022-08-19T11:31:32;2.17;;;2.17;;
71183;SDS011;58887;51.980;4.464;2022-08-19T11:34:01;1.95;;;1.95;;
71183;SDS011;58887;51.980;4.464;2022-08-19T11:36:29;1.98;;;1.98;;
71183;SDS011;58887;51.980;4.464;2022-08-19T11:38:56;1.90;;;1.90;;
71183;SDS011;58887;51.980;4.464;2022-08-19T11:41:22;2.26;;;2.26;;
71183;SDS011;58887;51.980;4.464;2022-08-19T11:43:49;2.29;;;2.29;;
71183;SDS011;58887;51.980;4.464;2022-08-19T11:46:17;2.55;;;2.55;;
71183;SDS011;58887;51.980;4.464;2022-08-19T11:48:43;2.45;;;2.45;;
71183;SDS011;58887;51.980;4.464;2022-08-19T11:51:10;2.12;;;2.12;;
71183;SDS011;58887;51.980;4.464;2022-08-19T11:53:37;2.24;;;2.24;;
71183;SDS011;58887;51.980;4.464;2022-08-19T11:56:05;2.55;;;2.55;;
71183;SDS011;58887;51.980;4.464;2022-08-19T11:58:32;2.97;;;2.97;;
71183;SDS011;58887;51.980;4.464;2022-08-19T12:00:59;2.86;;;2.86;;
71183;SDS011;58887;51.980;4.464;2022-08-19T12:03:25;3.06;;;3.06;;
71183;SDS011;58887;51.980;4.464;2022-08-19T12:05:51;2.70;;;2.70;;
71183;SDS011;58887;51.980;4.464;2022-08-19T12:08:17;2.51;;;2.51;;
71183;SDS011;58887;51.980;4.464;2022-08-19T12:10:44;2.48;;;2.48;;
71183;SDS011;58887;51.980;4.464;2022-08-19T12:13:10;2.42;;;2.42;;
71183;SDS011;58887;51.980;4.464;2022-08-19T12:15:43;2.52;;;2.52;;
71183;SDS011;58887;51.980;4.464;2022-08-19T12:18:10;2.56;;;2.56;;
71183;SDS011;58887;51.980;4.464;2022-08-19T12:20:37;2.66;;;2.66;;
71183;SDS011;58887;51.980;4.464;2022-08-19T12:23:04;2.64;;;2.64;;
71183;SDS011;58887;51.980;4.464;2022-08-19T12:25:31;2.67;;;2.67;;
71183;SDS011;58887;51.980;4.464;2022-08-19T12:27:58;2.64;;;2.64;;
71183;SDS011;58887;51.980;4.464;2022-08-19T12:30:24;2.59;;;2.59;;
71183;SDS011;58887;51.980;4.464;2022-08-19T12:32:50;2.66;;;2.66;;
71183;SDS011;58887;51.980;4.464;2022-08-19T12:35:16;2.60;;;2.60;;
71183;SDS011;58887;51.980;4.464;2022-08-19T12:37:45;2.82;;;2.82;;
71183;SDS011;58887;51.980;4.464;2022-08-19T12:40:12;2.98;;;2.98;;
71183;SDS011;58887;51.980;4.464;2022-08-19T12:42:39;2.70;;;2.70;;
71183;SDS011;58887;51.980;4.464;2022-08-19T12:45:08;2.79;;;2.79;;
71183;SDS011;58887;51.980;4.464;2022-08-19T12:47:35;2.64;;;2.64;;
71183;SDS011;58887;51.980;4.464;2022-08-19T12:50:00;3.32;;;3.32;;
71183;SDS011;58887;51.980;4.464;2022-08-19T12:52:26;3.36;;;3.36;;
71183;SDS011;58887;51.980;4.464;2022-08-19T12:54:56;2.99;;;2.99;;
71183;SDS011;58887;51.980;4.464;2022-08-19T12:57:23;3.25;;;3.25;;
71183;SDS011;58887;51.980;4.464;2022-08-19T12:59:52;3.03;;;3.03;;
71183;SDS011;58887;51.980;4.464;2022-08-19T13:02:18;2.83;;;2.83;;
71183;SDS011;58887;51.980;4.464;2022-08-19T13:04:45;2.98;;;2.98;;
71183;SDS011;58887;51.980;4.464;2022-08-19T13:07:10;3.09;;;3.09;;
71183;SDS011;58887;51.980;4.464;2022-08-19T13:09:36;2.86;;;2.86;;
71183;SDS011;58887;51.980;4.464;2022-08-19T13:12:02;2.37;;;2.37;;
71183;SDS011;58887;51.980;4.464;2022-08-19T13:14:32;2.97;;;2.97;;
71183;SDS011;58887;51.980;4.464;2022-08-19T13:16:59;2.46;;;2.46;;
71183;SDS011;58887;51.980;4.464;2022-08-19T13:19:25;1.96;;;1.96;;
71183;SDS011;58887;51.980;4.464;2022-08-19T13:21:51;2.26;;;2.26;;
71183;SDS011;58887;51.980;4.464;2022-08-19T13:24:18;2.37;;;2.37;;
71183;SDS011;58887;51.980;4.464;2022-08-19T13:26:44;2.86;;;2.86;;
71183;SDS011;58887;51.980;4.464;2022-08-19T13:29:10;2.79;;;2.79;;
71183;SDS011;58887;51.980;4.464;2022-08-19T13:31:54;2.81;;;2.81;;
71183;SDS011;58887;51.980;4.464;2022-08-19T13:34:38;2.39;;;2.39;;
71183;SDS011;58887;51.980;4.464;2022-08-19T13:37:04;1.73;;;1.73;;
71183;SDS011;58887;51.980;4.464;2022-08-19T13:39:33;1.47;;;1.47;;
71183;SDS011;58887;51.980;4.464;2022-08-19T13:42:00;1.44;;;1.44;;
71183;SDS011;58887;51.980;4.464;2022-08-19T13:44:27;1.45;;;1.45;;
71183;SDS011;58887;51.980;4.464;2022-08-19T13:47:00;1.47;;;1.47;;
71183;SDS011;58887;51.980;4.464;2022-08-19T13:49:35;1.34;;;1.34;;
71183;SDS011;58887;51.980;4.464;2022-08-19T13:52:01;1.45;;;1.45;;
71183;SDS011;58887;51.980;4.464;2022-08-19T13:54:30;1.86;;;1.86;;
71183;SDS011;58887;51.980;4.464;2022-08-19T13:56:58;1.88;;;1.88;;
71183;SDS011;58887;51.980;4.464;2022-08-19T13:59:23;1.79;;;1.79;;
71183;SDS011;58887;51.980;4.464;2022-08-19T14:01:49;1.55;;;1.55;;
71183;SDS011;58887;51.980;4.464;2022-08-19T14:04:15;1.56;;;1.56;;
71183;SDS011;58887;51.980;4.464;2022-08-19T14:06:40;1.53;;;1.53;;
71183;SDS011;58887;51.980;4.464;2022-08-19T14:09:05;1.68;;;1.68;;
71183;SDS011;58887;51.980;4.464;2022-08-19T14:11:32;1.58;;;1.58;;
71183;SDS011;58887;51.980;4.464;2022-08-19T14:13:58;2.16;;;2.16;;
71183;SDS011;58887;51.980;4.464;2022-08-19T14:16:23;2.51;;;2.51;;
71183;SDS011;58887;51.980;4.464;2022-08-19T14:18:49;2.19;;;2.19;;
71183;SDS011;58887;51.980;4.464;2022-08-19T14:21:17;1.72;;;1.72;;
71183;SDS011;58887;51.980;4.464;2022-08-19T14:23:46;2.00;;;2.00;;
71183;SDS011;58887;51.980;4.464;2022-08-19T14:26:14;2.16;;;2.16;;
71183;SDS011;58887;51.980;4.464;2022-08-19T14:28:42;2.20;;;2.20;;
71183;SDS011;58887;51.980;4.464;2022-08-19T14:31:12;2.07;;;2.07;;
71183;SDS011;58887;51.980;4.464;2022-08-19T14:33:43;2.13;;;2.13;;
71183;SDS011;58887;51.980;4.464;2022-08-19T14:36:09;2.10;;;2.10;;
71183;SDS011;58887;51.980;4.464;2022-08-19T14:38:34;2.21;;;2.21;;
71183;SDS011;58887;51.980;4.464;2022-08-19T14:41:21;2.20;;;2.20;;
71183;SDS011;58887;51.980;4.464;2022-08-19T14:43:50;2.25;;;2.25;;
71183;SDS011;58887;51.980;4.464;2022-08-19T14:46:19;2.13;;;2.13;;
71183;SDS011;58887;51.980;4.464;2022-08-19T14:48:46;2.31;;;2.31;;
71183;SDS011;58887;51.980;4.464;2022-08-19T14:51:13;2.58;;;2.58;;
71183;SDS011;58887;51.980;4.464;2022-08-19T14:53:39;2.73;;;2.73;;
71183;SDS011;58887;51.980;4.464;2022-08-19T14:56:12;2.50;;;2.50;;
71183;SDS011;58887;51.980;4.464;2022-08-19T14:58:40;2.58;;;2.58;;
71183;SDS011;58887;51.980;4.464;2022-08-19T15:01:07;2.63;;;2.63;;
71183;SDS011;58887;51.980;4.464;2022-08-19T15:03:33;2.90;;;2.90;;